createdAt,value
2019-03-22T00:00:03.227Z,9.28
2019-03-22T00:01:03.163Z,8.92
2019-03-22T00:02:02.799Z,8.07
2019-03-22T00:03:03.155Z,9.45
2019-03-22T00:04:03.159Z,8.42
2019-03-22T00:05:02.842Z,7.69
2019-03-22T00:06:02.906Z,8.61
2019-03-22T00:07:02.888Z,8.99
2019-03-22T00:08:03.228Z,7.35
2019-03-22T00:09:02.909Z,8.41
2019-03-22T00:10:02.778Z,8.9
2019-03-22T00:11:02.680Z,7.69
2019-03-22T00:12:04.525Z,8.81
2019-03-22T00:13:03.391Z,8.27
2019-03-22T00:14:03.094Z,8.15
2019-03-22T00:15:03.343Z,7.52
2019-03-22T00:16:03.064Z,9.26
2019-03-22T00:17:03.009Z,8.47
2019-03-22T00:18:02.853Z,7.92
2019-03-22T00:19:03.220Z,8.65
2019-03-22T00:20:02.916Z,8.02
2019-03-22T00:21:03.036Z,9.09
2019-03-22T00:22:02.927Z,8.79
2019-03-22T00:23:02.983Z,8.49
2019-03-22T00:24:02.991Z,8.05
2019-03-22T00:25:03.048Z,8.88
2019-03-22T00:26:02.985Z,9.9
2019-03-22T00:27:03.776Z,9.25
2019-03-22T00:28:02.986Z,9.31
2019-03-22T00:29:03.906Z,8.68
2019-03-22T00:30:04.170Z,9.15
2019-03-22T00:31:03.729Z,9.62
2019-03-22T00:32:02.836Z,9.25
2019-03-22T00:33:02.928Z,8.37
2019-03-22T00:34:02.715Z,9.12
2019-03-22T00:35:02.872Z,9.42
2019-03-22T00:36:02.845Z,8.1
2019-03-22T00:37:03.584Z,9.66
2019-03-22T00:38:03.597Z,9.42
2019-03-22T00:39:02.703Z,9.62
2019-03-22T00:40:03.599Z,8.32
2019-03-22T00:41:02.617Z,9.19
2019-03-22T00:42:03.591Z,7.94
2019-03-22T00:43:02.762Z,7.94
2019-03-22T00:44:02.891Z,7.66
2019-03-22T00:45:03.195Z,7.66
2019-03-22T00:46:02.791Z,9.76
2019-03-22T00:47:03.182Z,9.26
2019-03-22T00:48:02.974Z,9.26
2019-03-22T00:49:03.095Z,8.91
2019-03-22T00:50:02.827Z,9.26
2019-03-22T00:51:02.620Z,9.19
2019-03-22T00:52:02.981Z,8.81
2019-03-22T00:53:02.647Z,8.78
2019-03-22T00:54:04.064Z,8.42
2019-03-22T00:55:02.988Z,8.14
2019-03-22T00:56:03.332Z,8.79
2019-03-22T00:57:03.215Z,8.32
2019-03-22T00:58:02.807Z,8.24
2019-03-22T00:59:03.235Z,8.88
2019-03-22T01:00:03.595Z,8.74
2019-03-22T01:01:03.071Z,8.64
2019-03-22T01:02:03.285Z,8.71
2019-03-22T01:03:02.884Z,8.89
2019-03-22T01:04:03.086Z,8.92
2019-03-22T01:05:03.196Z,9.55
2019-03-22T01:06:02.897Z,9.84
2019-03-22T01:07:02.841Z,8.91
2019-03-22T01:08:02.827Z,9.24
2019-03-22T01:09:03.101Z,9.2
2019-03-22T01:10:02.923Z,8.55
2019-03-22T01:11:03.111Z,8.64
2019-03-22T01:12:03.104Z,9.26
2019-03-22T01:13:03.026Z,8.76
2019-03-22T01:14:03.008Z,9.55
2019-03-22T01:15:03.853Z,8.84
2019-03-22T01:16:02.884Z,9.09
2019-03-22T01:17:02.912Z,9.48
2019-03-22T01:18:03.657Z,8.76
2019-03-22T01:19:03.831Z,8.71
2019-03-22T01:20:02.889Z,8.71
2019-03-22T01:21:03.779Z,8.51
2019-03-22T01:22:03.703Z,8.65
2019-03-22T01:23:03.741Z,8.85
2019-03-22T01:24:03.599Z,8.58
2019-03-22T01:25:03.669Z,8.29
2019-03-22T01:26:03.804Z,8
2019-03-22T01:27:03.427Z,8.65
2019-03-22T01:28:03.643Z,8.68
2019-03-22T01:29:04.198Z,8.65
2019-03-22T01:30:03.349Z,9.45
2019-03-22T01:31:03.741Z,8.44
2019-03-22T01:32:03.394Z,9.49
2019-03-22T01:33:03.370Z,8.92
2019-03-22T01:34:03.350Z,9.31
2019-03-22T01:35:03.651Z,9.31
2019-03-22T01:36:03.715Z,8.63
2019-03-22T01:37:03.523Z,8.63
2019-03-22T01:38:03.569Z,8.82
2019-03-22T01:39:03.413Z,9.21
2019-03-22T01:40:03.651Z,9.21
2019-03-22T01:41:03.647Z,8.3
2019-03-22T01:42:03.309Z,9.14
2019-03-22T01:43:03.077Z,8.16
2019-03-22T01:44:03.426Z,8.58
2019-03-22T01:45:03.436Z,9.12
2019-03-22T01:46:02.037Z,9.42
2019-03-22T01:47:03.288Z,8.74
2019-03-22T01:48:03.067Z,8.59
2019-03-22T01:49:03.351Z,9.86
2019-03-22T01:50:03.308Z,9.18
2019-03-22T01:51:03.441Z,10.54
2019-03-22T01:52:03.417Z,8.89
2019-03-22T01:53:03.373Z,10.54
2019-03-22T01:54:03.293Z,8.44
2019-03-22T01:55:02.757Z,9.31
2019-03-22T01:56:03.209Z,9.2
2019-03-22T01:57:03.000Z,8.83
2019-03-22T01:58:03.321Z,9.89
2019-03-22T01:59:02.938Z,9.35
2019-03-22T02:00:03.376Z,9.49
2019-03-22T02:01:03.089Z,9.16
2019-03-22T02:02:03.337Z,8.93
2019-03-22T02:03:03.002Z,9.41
2019-03-22T02:04:02.958Z,9.52
2019-03-22T02:05:02.774Z,8.65
2019-03-22T02:06:02.875Z,8.79
2019-03-22T02:07:03.090Z,8.95
2019-03-22T02:08:02.955Z,9.74
2019-03-22T02:09:03.115Z,8.56
2019-03-22T02:10:02.969Z,9.96
2019-03-22T02:11:02.937Z,9.85
2019-03-22T02:12:02.717Z,9.84
2019-03-22T02:13:03.355Z,10.19
2019-03-22T02:14:02.901Z,8.79
2019-03-22T02:15:03.701Z,10.53
2019-03-22T02:16:02.846Z,8.9
2019-03-22T02:17:03.642Z,10.41
2019-03-22T02:18:02.652Z,9.86
2019-03-22T02:19:03.500Z,10.35
2019-03-22T02:20:03.890Z,11.11
2019-03-22T02:21:03.516Z,9.89
2019-03-22T02:22:03.036Z,9.89
2019-03-22T02:23:03.481Z,9.51
2019-03-22T02:24:02.838Z,9.82
2019-03-22T02:25:02.979Z,9.82
2019-03-22T02:26:02.984Z,10.56
2019-03-22T02:27:03.590Z,9.67
2019-03-22T02:28:04.692Z,9.67
2019-03-22T02:29:02.876Z,9.1
2019-03-22T02:30:03.643Z,9.03
2019-03-22T02:31:03.763Z,10.41
2019-03-22T02:32:03.770Z,9.52
2019-03-22T02:33:02.542Z,10.37
2019-03-22T02:34:03.472Z,9.1
2019-03-22T02:35:02.752Z,9.53
2019-03-22T02:36:03.388Z,10.11
2019-03-22T02:37:03.745Z,9.82
2019-03-22T02:38:03.686Z,9.69
2019-03-22T02:39:03.721Z,9.37
2019-03-22T02:40:03.445Z,10.08
2019-03-22T02:41:03.465Z,10.18
2019-03-22T02:42:03.761Z,10.42
2019-03-22T02:43:03.713Z,10.74
2019-03-22T02:44:03.778Z,10.24
2019-03-22T02:45:04.014Z,10.66
2019-03-22T02:46:02.437Z,10.04
2019-03-22T02:47:03.657Z,9.71
2019-03-22T02:48:03.503Z,9.58
2019-03-22T02:49:03.796Z,10
2019-03-22T02:50:19.345Z,9.28
2019-03-22T02:51:03.683Z,9.21
2019-03-22T02:52:03.648Z,9.9
2019-03-22T02:53:03.701Z,9.8
2019-03-22T02:54:03.460Z,9.19
2019-03-22T02:55:02.936Z,9.52
2019-03-22T02:56:03.677Z,9.64
2019-03-22T02:57:03.437Z,9.18
2019-03-22T02:58:21.420Z,9.6
2019-03-22T02:59:03.337Z,10.11
2019-03-22T03:00:03.577Z,9.76
2019-03-22T03:01:03.463Z,9.68
2019-03-22T03:02:03.631Z,8.45
2019-03-22T03:03:03.493Z,9.44
2019-03-22T03:04:03.527Z,10.46
2019-03-22T03:05:03.337Z,9.22
2019-03-22T03:06:03.485Z,9.26
2019-03-22T03:07:03.678Z,11.08
2019-03-22T03:08:03.231Z,9.56
2019-03-22T03:09:03.356Z,9.37
2019-03-22T03:10:03.792Z,11.16
2019-03-22T03:11:03.548Z,11.16
2019-03-22T03:12:03.639Z,10.45
2019-03-22T03:13:03.494Z,10.04
2019-03-22T03:14:03.491Z,9.83
2019-03-22T03:15:03.490Z,9.63
2019-03-22T03:16:03.564Z,9.63
2019-03-22T03:17:03.552Z,10.44
2019-03-22T03:18:03.475Z,9.39
2019-03-22T03:19:02.988Z,10.96
2019-03-22T03:20:03.335Z,11.06
2019-03-22T03:21:03.249Z,10.62
2019-03-22T03:22:03.720Z,9.94
2019-03-22T03:23:03.480Z,9.85
2019-03-22T03:24:03.693Z,10.91
2019-03-22T03:25:03.363Z,10.16
2019-03-22T03:26:03.343Z,10.82
2019-03-22T03:27:03.432Z,10.84
2019-03-22T03:28:03.608Z,9.85
2019-03-22T03:29:03.477Z,8.98
2019-03-22T03:30:03.517Z,10.36
2019-03-22T03:31:03.518Z,10.44
2019-03-22T03:32:02.923Z,10.06
2019-03-22T03:33:03.222Z,10.09
2019-03-22T03:34:03.237Z,11.54
2019-03-22T03:35:03.747Z,9.64
2019-03-22T03:36:03.468Z,11
2019-03-22T03:37:03.461Z,9.67
2019-03-22T03:38:02.947Z,9.44
2019-03-22T03:39:03.676Z,11.02
2019-03-22T03:40:03.201Z,10.86
2019-03-22T03:41:03.004Z,10.73
2019-03-22T03:42:03.122Z,11.26
2019-03-22T03:43:03.199Z,10.06
2019-03-22T03:44:03.361Z,9.95
2019-03-22T03:45:02.929Z,9.88
2019-03-22T03:46:03.182Z,10.08
2019-03-22T03:47:03.047Z,10.73
2019-03-22T03:48:03.049Z,10.83
2019-03-22T03:49:02.982Z,9.64
2019-03-22T03:50:03.089Z,11.36
2019-03-22T03:51:02.917Z,10.39
2019-03-22T03:52:03.102Z,10.8
2019-03-22T03:53:02.721Z,9.42
2019-03-22T03:54:02.831Z,9.76
2019-03-22T03:55:02.901Z,10.33
2019-03-22T03:56:03.811Z,9.78
2019-03-22T03:57:03.658Z,10.09
2019-03-22T03:58:03.743Z,9.18
2019-03-22T03:59:02.901Z,10.11
2019-03-22T04:00:03.678Z,9.94
2019-03-22T04:01:03.059Z,9.94
2019-03-22T04:02:03.512Z,11.23
2019-03-22T04:03:03.082Z,11.23
2019-03-22T04:04:03.639Z,9.83
2019-03-22T04:05:02.856Z,10.05
2019-03-22T04:06:03.931Z,10.38
2019-03-22T04:07:03.525Z,10.48
2019-03-22T04:08:03.707Z,9.94
2019-03-22T04:09:03.422Z,9.59
2019-03-22T04:10:02.847Z,10.54
2019-03-22T04:11:03.696Z,10.62
2019-03-22T04:12:02.855Z,10.44
2019-03-22T04:13:03.865Z,9.83
2019-03-22T04:14:03.652Z,9.86
2019-03-22T04:15:03.708Z,9.59
2019-03-22T04:16:03.685Z,10.26
2019-03-22T04:17:03.455Z,9.82
2019-03-22T04:18:03.502Z,9.81
2019-03-22T04:19:03.658Z,10.08
2019-03-22T04:20:03.574Z,9.95
2019-03-22T04:21:03.178Z,10.16
2019-03-22T04:22:03.183Z,9.61
2019-03-22T04:23:03.552Z,9.02
2019-03-22T04:24:03.351Z,8.62
2019-03-22T04:25:03.581Z,9.76
2019-03-22T04:26:03.480Z,9.71
2019-03-22T04:27:03.149Z,9.36
2019-03-22T04:28:03.268Z,9.84
2019-03-22T04:29:08.527Z,11.19
2019-03-22T04:30:03.307Z,11.08
2019-03-22T04:31:02.868Z,10.25
2019-03-22T04:32:03.273Z,9.89
2019-03-22T04:33:07.076Z,10.18
2019-03-22T04:34:03.533Z,10.91
2019-03-22T04:35:03.114Z,10.45
2019-03-22T04:36:03.343Z,10.61
2019-03-22T04:37:03.363Z,10.66
2019-03-22T04:38:03.497Z,9.45
2019-03-22T04:39:03.408Z,9.65
2019-03-22T04:40:03.427Z,9.96
2019-03-22T04:41:03.166Z,9.92
2019-03-22T04:42:03.344Z,9.84
2019-03-22T04:43:03.400Z,10.52
2019-03-22T04:44:03.213Z,10.66
2019-03-22T04:45:03.213Z,10.1
2019-03-22T04:46:03.084Z,9.46
2019-03-22T04:47:03.215Z,9.81
2019-03-22T04:48:02.905Z,10.86
2019-03-22T04:49:03.335Z,10.49
2019-03-22T04:50:03.271Z,9.28
2019-03-22T04:51:03.500Z,9.28
2019-03-22T04:52:03.231Z,9.24
2019-03-22T04:53:03.187Z,9.24
2019-03-22T04:54:03.227Z,11.19
2019-03-22T04:55:03.311Z,9.24
2019-03-22T04:56:03.238Z,9.62
2019-03-22T04:57:02.864Z,9.09
2019-03-22T04:58:03.211Z,9.06
2019-03-22T04:59:03.010Z,9.3
2019-03-22T05:00:03.381Z,10.02
2019-03-22T05:01:03.073Z,9.99
2019-03-22T05:02:03.380Z,9.84
2019-03-22T05:03:03.091Z,10.55
2019-03-22T05:04:03.084Z,9.13
2019-03-22T05:05:03.207Z,10.46
2019-03-22T05:06:03.083Z,10.26
2019-03-22T05:07:03.128Z,10.89
2019-03-22T05:08:03.159Z,10.26
2019-03-22T05:09:03.183Z,10.05
2019-03-22T05:10:03.047Z,10.07
2019-03-22T05:11:03.152Z,9.99
2019-03-22T05:12:03.103Z,9.69
2019-03-22T05:13:03.153Z,10.48
2019-03-22T05:14:03.041Z,9.19
2019-03-22T05:15:02.870Z,10.46
2019-03-22T05:16:02.898Z,10
2019-03-22T05:17:03.001Z,10.11
2019-03-22T05:18:02.942Z,10.59
2019-03-22T05:19:03.017Z,10.78
2019-03-22T05:20:03.308Z,11.33
2019-03-22T05:21:03.043Z,11.44
2019-03-22T05:22:03.095Z,11.18
2019-03-22T05:23:02.939Z,12.75
2019-03-22T05:24:03.149Z,13.33
2019-03-22T05:25:03.682Z,11.79
2019-03-22T05:26:03.121Z,11.74
2019-03-22T05:27:02.930Z,11.44
2019-03-22T05:28:02.694Z,10.61
2019-03-22T05:29:02.676Z,9.96
2019-03-22T05:30:03.488Z,11.52
2019-03-22T05:31:03.572Z,11.24
2019-03-22T05:32:02.746Z,10.46
2019-03-22T05:33:02.905Z,11.49
2019-03-22T05:34:03.027Z,9.75
2019-03-22T05:35:03.750Z,11.76
2019-03-22T05:36:03.432Z,11.05
2019-03-22T05:37:03.631Z,10.71
2019-03-22T05:38:03.599Z,10.52
2019-03-22T05:39:03.751Z,10.52
2019-03-22T05:40:03.244Z,10.55
2019-03-22T05:41:03.659Z,10.55
2019-03-22T05:42:03.589Z,9.47
2019-03-22T05:43:03.714Z,9.47
2019-03-22T05:44:02.543Z,10.61
2019-03-22T05:45:04.013Z,9.94
2019-03-22T05:46:03.589Z,11.32
2019-03-22T05:47:03.515Z,12.31
2019-03-22T05:48:03.474Z,11.01
2019-03-22T05:49:03.430Z,11.81
2019-03-22T05:50:03.568Z,11.35
2019-03-22T05:51:03.376Z,11.56
2019-03-22T05:52:03.396Z,11.63
2019-03-22T05:53:03.539Z,11.26
2019-03-22T05:54:02.966Z,10.8
2019-03-22T05:55:03.555Z,11.22
2019-03-22T05:56:03.375Z,10.43
2019-03-22T05:57:13.920Z,10.62
2019-03-22T05:58:03.460Z,10.05
2019-03-22T05:59:03.668Z,10.64
2019-03-22T06:00:03.511Z,11.71
2019-03-22T06:01:03.569Z,10.5
2019-03-22T06:02:03.570Z,11.05
2019-03-22T06:03:03.662Z,10
2019-03-22T06:04:03.379Z,10.23
2019-03-22T06:05:03.482Z,10.36
2019-03-22T06:06:03.568Z,10.06
2019-03-22T06:07:03.099Z,9.83
2019-03-22T06:08:03.556Z,10.74
2019-03-22T06:09:03.242Z,8.9
2019-03-22T06:10:03.740Z,10.03
2019-03-22T06:11:03.159Z,9.91
2019-03-22T06:12:03.481Z,9.49
2019-03-22T06:13:03.385Z,10.09
2019-03-22T06:14:03.437Z,9.2
2019-03-22T06:15:03.523Z,9.98
2019-03-22T06:16:03.391Z,9.32
2019-03-22T06:17:03.403Z,9.31
2019-03-22T06:18:03.306Z,9.72
2019-03-22T06:19:03.586Z,9.16
2019-03-22T06:20:03.392Z,9.62
2019-03-22T06:21:03.208Z,9.25
2019-03-22T06:22:03.476Z,9.56
2019-03-22T06:23:03.482Z,8.55
2019-03-22T06:24:03.054Z,7.51
2019-03-22T06:25:03.229Z,9.44
2019-03-22T06:26:03.365Z,8.84
2019-03-22T06:27:03.262Z,8.66
2019-03-22T06:28:03.463Z,9.04
2019-03-22T06:29:02.928Z,8.54
2019-03-22T06:30:03.220Z,9.37
2019-03-22T06:31:03.271Z,9.12
2019-03-22T06:32:03.069Z,10.32
2019-03-22T06:33:03.833Z,8.87
2019-03-22T06:34:03.483Z,8.87
2019-03-22T06:35:03.311Z,9.02
2019-03-22T06:36:03.245Z,8.84
2019-03-22T06:37:03.233Z,9.74
2019-03-22T06:38:03.164Z,9.29
2019-03-22T06:39:03.106Z,10.12
2019-03-22T06:40:03.441Z,9.79
2019-03-22T06:41:03.195Z,9.22
2019-03-22T06:42:03.379Z,9.82
2019-03-22T06:43:03.141Z,10.47
2019-03-22T06:44:03.269Z,9.66
2019-03-22T06:45:03.411Z,9.09
2019-03-22T06:46:03.125Z,9.07
2019-03-22T06:47:03.357Z,8.94
2019-03-22T06:48:02.978Z,9.68
2019-03-22T06:49:03.185Z,9.12
2019-03-22T06:50:03.211Z,9.81
2019-03-22T06:51:03.016Z,9.57
2019-03-22T06:52:02.694Z,8.79
2019-03-22T06:53:02.856Z,9.2
2019-03-22T06:54:02.967Z,9.53
2019-03-22T06:55:02.912Z,9.73
2019-03-22T06:56:02.904Z,9.69
2019-03-22T06:57:02.928Z,8.79
2019-03-22T06:58:03.129Z,9.96
2019-03-22T06:59:03.087Z,9.04
2019-03-22T07:00:07.454Z,10.14
2019-03-22T07:01:02.893Z,9.02
2019-03-22T07:02:03.361Z,10.13
2019-03-22T07:03:03.090Z,9.04
2019-03-22T07:04:03.176Z,9.19
2019-03-22T07:05:03.395Z,9.42
2019-03-22T07:06:02.953Z,8.91
2019-03-22T07:07:03.082Z,9.46
2019-03-22T07:08:03.043Z,9.93
2019-03-22T07:09:03.033Z,9.08
2019-03-22T07:10:02.996Z,9.41
2019-03-22T07:11:03.355Z,9.31
2019-03-22T07:12:02.883Z,9.47
2019-03-22T07:13:03.104Z,10.26
2019-03-22T07:14:02.978Z,9.11
2019-03-22T07:15:02.888Z,9.35
2019-03-22T07:16:03.376Z,10.46
2019-03-22T07:17:03.037Z,9
2019-03-22T07:18:02.894Z,10.69
2019-03-22T07:19:02.657Z,10.01
2019-03-22T07:20:03.119Z,10.44
2019-03-22T07:21:02.827Z,9.74
2019-03-22T07:22:03.061Z,9.74
2019-03-22T07:23:02.789Z,9.39
2019-03-22T07:24:03.315Z,9.39
2019-03-22T07:25:03.054Z,9.62
2019-03-22T07:26:02.939Z,9.71
2019-03-22T07:27:02.980Z,9.55
2019-03-22T07:28:02.810Z,9.7
2019-03-22T07:29:03.070Z,9.52
2019-03-22T07:30:03.847Z,8.99
2019-03-22T07:31:02.970Z,9.97
2019-03-22T07:32:03.009Z,10.31
2019-03-22T07:33:02.990Z,10.62
2019-03-22T07:34:02.775Z,11.52
2019-03-22T07:35:03.380Z,9.28
2019-03-22T07:36:02.732Z,9.83
2019-03-22T07:37:03.900Z,9.92
2019-03-22T07:38:02.891Z,8.75
2019-03-22T07:39:02.651Z,8.97
2019-03-22T07:40:02.899Z,8.74
2019-03-22T07:41:02.826Z,8.65
2019-03-22T07:42:02.883Z,8.19
2019-03-22T07:43:02.839Z,9.28
2019-03-22T07:44:03.532Z,8.88
2019-03-22T07:45:03.616Z,8.12
2019-03-22T07:46:03.695Z,8.24
2019-03-22T07:47:03.721Z,7.43
2019-03-22T07:48:02.936Z,7.68
2019-03-22T07:49:03.516Z,8.24
2019-03-22T07:50:03.734Z,8.44
2019-03-22T07:51:03.728Z,8.02
2019-03-22T07:52:03.484Z,9
2019-03-22T07:53:03.779Z,8.65
2019-03-22T07:54:03.929Z,8.02
2019-03-22T07:55:03.690Z,8.34
2019-03-22T07:56:03.307Z,7.82
2019-03-22T07:57:03.464Z,7.32
2019-03-22T07:58:03.297Z,7.68
2019-03-22T07:59:03.506Z,7.86
2019-03-22T08:00:03.302Z,9.24
2019-03-22T08:01:03.231Z,7.97
2019-03-22T08:02:03.635Z,7.77
2019-03-22T08:03:03.374Z,8.46
2019-03-22T08:04:03.134Z,7.74
2019-03-22T08:05:03.231Z,7.17
2019-03-22T08:06:03.387Z,7.95
2019-03-22T08:07:03.290Z,7.04
2019-03-22T08:08:03.683Z,6.49
2019-03-22T08:09:03.002Z,7.99
2019-03-22T08:10:03.223Z,7.99
2019-03-22T08:11:03.072Z,7.88
2019-03-22T08:12:02.926Z,7.39
2019-03-22T08:13:03.246Z,7.39
2019-03-22T08:14:03.476Z,7.87
2019-03-22T08:15:02.986Z,7.09
2019-03-22T08:16:03.133Z,7.04
2019-03-22T08:17:03.227Z,7.98
2019-03-22T08:18:02.752Z,7.94
2019-03-22T08:19:03.253Z,7.69
2019-03-22T08:20:03.136Z,7.63
2019-03-22T08:21:03.065Z,7.42
2019-03-22T08:22:03.044Z,7.82
2019-03-22T08:23:03.034Z,7.59
2019-03-22T08:24:03.036Z,6.71
2019-03-22T08:25:03.144Z,7.54
2019-03-22T08:26:02.886Z,7.96
2019-03-22T08:27:02.968Z,7.93
2019-03-22T08:28:02.852Z,7.2
2019-03-22T08:29:03.021Z,7.1
2019-03-22T08:30:03.545Z,7.52
2019-03-22T08:31:05.791Z,7.45
2019-03-22T08:32:02.878Z,7.32
2019-03-22T08:33:03.054Z,8.12
2019-03-22T08:34:03.134Z,7.45
2019-03-22T08:35:03.731Z,7.85
2019-03-22T08:36:02.858Z,7.31
2019-03-22T08:37:02.868Z,7.14
2019-03-22T08:38:02.726Z,7.52
2019-03-22T08:39:03.464Z,7.86
2019-03-22T08:40:02.952Z,7.86
2019-03-22T08:41:02.911Z,7.92
2019-03-22T08:42:02.973Z,7.3
2019-03-22T08:43:03.675Z,7.34
2019-03-22T08:44:03.965Z,8.81
2019-03-22T08:45:02.856Z,7.72
2019-03-22T08:46:03.802Z,7.79
2019-03-22T08:47:03.352Z,7.39
2019-03-22T08:48:03.782Z,8.29
2019-03-22T08:49:03.879Z,7.25
2019-03-22T08:50:03.648Z,8.46
2019-03-22T08:51:03.550Z,8.13
2019-03-22T08:52:03.560Z,8.38
2019-03-22T08:53:03.471Z,7.8
2019-03-22T08:54:03.530Z,7.91
2019-03-22T08:55:02.862Z,8.21
2019-03-22T08:56:03.523Z,7.52
2019-03-22T08:57:03.770Z,8.78
2019-03-22T08:58:03.576Z,8.8
2019-03-22T08:59:03.663Z,8.54
2019-03-22T09:00:03.728Z,8.79
2019-03-22T09:01:03.614Z,8.79
2019-03-22T09:02:03.609Z,8.98
2019-03-22T09:03:03.200Z,8.88
2019-03-22T09:04:03.408Z,8.88
2019-03-22T09:05:03.643Z,8.13
2019-03-22T09:06:03.409Z,8.64
2019-03-22T09:07:03.262Z,9.17
2019-03-22T09:08:03.698Z,9.32
2019-03-22T09:09:03.294Z,9.71
2019-03-22T09:10:03.626Z,10.1
2019-03-22T09:11:03.577Z,8.43
2019-03-22T09:12:03.644Z,9.29
2019-03-22T09:13:03.443Z,9.46
2019-03-22T09:14:03.465Z,8.85
2019-03-22T09:15:03.452Z,9.74
2019-03-22T09:16:03.526Z,9.66
2019-03-22T09:17:03.266Z,9.03
2019-03-22T09:18:03.353Z,8.3
2019-03-22T09:19:03.084Z,9.1
2019-03-22T09:20:03.352Z,9.61
2019-03-22T09:21:03.122Z,9.44
2019-03-22T09:22:02.975Z,9.6
2019-03-22T09:23:03.414Z,10.13
2019-03-22T09:24:03.150Z,8.85
2019-03-22T09:25:03.432Z,9.57
2019-03-22T09:26:03.520Z,9.01
2019-03-22T09:27:03.359Z,9.24
2019-03-22T09:28:03.125Z,9.98
2019-03-22T09:29:03.223Z,9.49
2019-03-22T09:30:03.376Z,8.75
2019-03-22T09:31:10.872Z,9.81
2019-03-22T09:32:03.399Z,10.05
2019-03-22T09:33:03.235Z,9.16
2019-03-22T09:34:03.299Z,9.08
2019-03-22T09:35:03.126Z,8.64
2019-03-22T09:36:03.383Z,9.56
2019-03-22T09:37:03.249Z,10.55
2019-03-22T09:38:13.497Z,9.69
2019-03-22T09:39:03.272Z,10.56
2019-03-22T09:40:02.987Z,9.14
2019-03-22T09:41:03.427Z,9.44
2019-03-22T09:42:03.067Z,9.72
2019-03-22T09:43:03.272Z,9.06
2019-03-22T09:44:03.340Z,9.62
2019-03-22T09:45:03.453Z,9.26
2019-03-22T09:46:03.273Z,10.14
2019-03-22T09:47:03.337Z,10.14
2019-03-22T09:48:06.296Z,9.14
2019-03-22T09:49:03.359Z,9.14
2019-03-22T09:50:03.038Z,9.26
2019-03-22T09:51:02.870Z,9.68
2019-03-22T09:52:03.239Z,9.68
2019-03-22T09:53:03.229Z,9.39
2019-03-22T09:54:03.159Z,10.81
2019-03-22T09:55:14.434Z,9.68
2019-03-22T09:56:03.293Z,9.54
2019-03-22T09:57:03.232Z,9.85
2019-03-22T09:58:03.341Z,10.51
2019-03-22T09:59:03.314Z,9.92
2019-03-22T10:00:03.428Z,9.75
2019-03-22T10:01:01.831Z,10.2
2019-03-22T10:02:04.554Z,10.38
2019-03-22T10:03:03.069Z,9.21
2019-03-22T10:04:02.826Z,9.21
2019-03-22T10:05:03.280Z,9.21
2019-03-22T10:06:03.536Z,9.59
2019-03-22T10:07:03.105Z,9.52
2019-03-22T10:08:03.278Z,9.52
2019-03-22T10:09:05.636Z,9.92
2019-03-22T10:10:03.103Z,8.73
2019-03-22T10:11:03.518Z,8.78
2019-03-22T10:12:03.244Z,9.87
2019-03-22T10:13:03.429Z,9.16
2019-03-22T10:14:02.783Z,9.02
2019-03-22T10:15:03.451Z,9.02
2019-03-22T10:16:03.684Z,9.02
2019-03-22T10:17:03.315Z,9.43
2019-03-22T10:18:02.926Z,9.43
2019-03-22T10:19:03.861Z,9.71
2019-03-22T10:20:02.706Z,9.39
2019-03-22T10:21:03.099Z,8.98
2019-03-22T10:22:03.085Z,8.98
2019-03-22T10:23:03.020Z,9.42
2019-03-22T10:24:03.413Z,8.45
2019-03-22T10:25:02.968Z,8.59
2019-03-22T10:26:03.118Z,9.43
2019-03-22T10:27:05.450Z,9.43
2019-03-22T10:28:03.108Z,8.51
2019-03-22T10:29:03.017Z,8.82
2019-03-22T10:30:03.209Z,11.05
2019-03-22T10:31:02.829Z,11.05
2019-03-22T10:32:03.542Z,10.01
2019-03-22T10:33:02.971Z,9.58
2019-03-22T10:34:03.714Z,9.06
2019-03-22T10:35:03.118Z,8.91
2019-03-22T10:36:02.773Z,8.91
2019-03-22T10:37:02.820Z,9.11
2019-03-22T10:38:15.582Z,9.11
2019-03-22T10:39:03.601Z,10.21
2019-03-22T10:40:02.919Z,9.22
2019-03-22T10:41:03.392Z,9.22
2019-03-22T10:42:03.770Z,9.22
2019-03-22T10:43:02.930Z,9.15
2019-03-22T10:44:03.475Z,9.15
2019-03-22T10:45:03.265Z,9.77
2019-03-22T10:46:03.081Z,8.95
2019-03-22T10:47:03.152Z,9.74
2019-03-22T10:48:03.061Z,9.74
2019-03-22T10:49:02.824Z,9.74
2019-03-22T10:50:03.649Z,8.88
2019-03-22T10:51:03.354Z,9.85
2019-03-22T10:52:04.790Z,10.06
2019-03-22T10:53:03.107Z,10.06
2019-03-22T10:54:03.732Z,9.75
2019-03-22T10:55:29.560Z,10
2019-03-22T10:56:02.916Z,9.95
2019-03-22T10:57:03.493Z,10.02
2019-03-22T10:58:03.055Z,9.71
2019-03-22T10:59:03.202Z,9.85
2019-03-22T11:00:02.938Z,9.85
2019-03-22T11:01:02.839Z,9.89
2019-03-22T11:02:07.448Z,9.89
2019-03-22T11:03:03.009Z,9.89
2019-03-22T11:04:03.154Z,10.32
2019-03-22T11:05:03.001Z,9.69
2019-03-22T11:06:03.727Z,9.69
2019-03-22T11:07:02.845Z,9.82
2019-03-22T11:08:03.120Z,8.88
2019-03-22T11:09:03.355Z,8.88
2019-03-22T11:10:03.048Z,8.95
2019-03-22T11:11:03.495Z,8.66
2019-03-22T11:12:12.744Z,7.68
2019-03-22T11:13:03.119Z,8.23
2019-03-22T11:14:02.890Z,7.64
2019-03-22T11:15:02.753Z,8.11
2019-03-22T11:16:03.385Z,6.65
2019-03-22T11:17:03.445Z,7.04
2019-03-22T11:18:03.411Z,7.31
2019-03-22T11:19:03.135Z,7.31
2019-03-22T11:20:03.719Z,7.78
2019-03-22T11:21:05.780Z,6.78
2019-03-22T11:22:02.811Z,6.61
2019-03-22T11:23:02.835Z,6.46
2019-03-22T11:24:03.541Z,6.78
2019-03-22T11:25:05.022Z,7.39
2019-03-22T11:26:04.660Z,6.99
2019-03-22T11:27:03.487Z,6.99
2019-03-22T11:28:03.628Z,10.52
2019-03-22T11:29:03.706Z,10.52
2019-03-22T11:30:03.633Z,8.85
2019-03-22T11:31:05.263Z,8.49
2019-03-22T11:32:12.986Z,8.49
2019-03-22T11:33:03.414Z,6.98
2019-03-22T11:34:03.210Z,5.96
2019-03-22T11:35:03.346Z,5.96
2019-03-22T11:36:03.338Z,5.39
2019-03-22T11:37:03.371Z,5.98
2019-03-22T11:38:03.161Z,5.47
2019-03-22T11:39:03.486Z,5.61
2019-03-22T11:40:03.343Z,5.97
2019-03-22T11:41:03.255Z,5.76
2019-03-22T11:42:02.948Z,5.89
2019-03-22T11:43:09.141Z,6.15
2019-03-22T11:44:03.570Z,5.82
2019-03-22T11:45:03.613Z,5.69
2019-03-22T11:46:03.196Z,6.21
2019-03-22T11:47:03.222Z,5.96
2019-03-22T11:48:03.205Z,6.92
2019-03-22T11:49:03.360Z,6.16
2019-03-22T11:50:03.407Z,6.22
2019-03-22T11:51:03.276Z,6.64
2019-03-22T11:52:03.058Z,5.66
2019-03-22T11:53:02.997Z,5.86
2019-03-22T11:54:02.997Z,5.15
2019-03-22T11:55:02.794Z,5.22
2019-03-22T11:56:03.125Z,4.74
2019-03-22T11:57:02.788Z,5.07
2019-03-22T11:58:03.200Z,5.51
2019-03-22T11:59:03.072Z,5.09
2019-03-22T12:00:03.489Z,4.47
2019-03-22T12:01:02.984Z,4.45
2019-03-22T12:02:03.258Z,4.85
2019-03-22T12:03:03.159Z,5.52
2019-03-22T12:04:03.240Z,5.56
2019-03-22T12:05:03.305Z,5.35
2019-03-22T12:06:02.868Z,4.98
2019-03-22T12:07:02.983Z,4.86
2019-03-22T12:08:02.906Z,5
2019-03-22T12:09:02.883Z,4.52
2019-03-22T12:10:02.991Z,6.28
2019-03-22T12:11:03.301Z,5.57
2019-03-22T12:12:03.218Z,7.59
2019-03-22T12:13:02.971Z,6.22
2019-03-22T12:14:03.033Z,5.73
2019-03-22T12:15:03.251Z,5.73
2019-03-22T12:16:03.023Z,5.94
2019-03-22T12:17:02.837Z,5.25
2019-03-22T12:18:03.699Z,5.25
2019-03-22T12:19:02.954Z,5.74
2019-03-22T12:20:02.886Z,5.74
2019-03-22T12:21:02.958Z,5.46
2019-03-22T12:22:02.919Z,6.26
2019-03-22T12:23:02.797Z,6.42
2019-03-22T12:24:02.854Z,5.62
2019-03-22T12:25:03.904Z,5.42
2019-03-22T12:26:03.489Z,6.72
2019-03-22T12:27:02.881Z,6.62
2019-03-22T12:28:03.105Z,7.22
2019-03-22T12:29:02.853Z,6.06
2019-03-22T12:30:02.999Z,5.81
2019-03-22T12:31:02.839Z,6.09
2019-03-22T12:32:03.192Z,6.53
2019-03-22T12:33:02.977Z,6.62
2019-03-22T12:34:04.373Z,6.71
2019-03-22T12:35:03.019Z,7.15
2019-03-22T12:36:02.918Z,9.58
2019-03-22T12:37:03.776Z,7.27
2019-03-22T12:38:02.781Z,5.99
2019-03-22T12:39:02.806Z,6.74
2019-03-22T12:40:03.848Z,6.61
2019-03-22T12:41:02.687Z,6.64
2019-03-22T12:42:03.047Z,6.41
2019-03-22T12:43:03.242Z,6.22
2019-03-22T12:44:03.010Z,5.96
2019-03-22T12:45:03.037Z,5.99
2019-03-22T12:46:03.290Z,6.16
2019-03-22T12:47:02.923Z,5.99
2019-03-22T12:48:02.964Z,5.91
2019-03-22T12:49:03.213Z,5.75
2019-03-22T12:50:02.739Z,5.71
2019-03-22T12:51:02.837Z,6.19
2019-03-22T12:52:03.008Z,6.63
2019-03-22T12:53:02.648Z,5.98
2019-03-22T12:54:02.937Z,5.87
2019-03-22T12:55:03.540Z,6.7
2019-03-22T12:56:03.112Z,6.88
2019-03-22T12:57:03.733Z,6.34
2019-03-22T12:58:02.955Z,7.92
2019-03-22T12:59:03.177Z,6.37
2019-03-22T13:00:02.924Z,6.42
2019-03-22T13:01:02.896Z,6.16
2019-03-22T13:02:03.064Z,6.31
2019-03-22T13:03:02.721Z,6.51
2019-03-22T13:04:02.774Z,8.26
2019-03-22T13:05:02.764Z,6.66
2019-03-22T13:06:02.742Z,6.66
2019-03-22T13:07:02.758Z,7.39
2019-03-22T13:08:03.487Z,6.82
2019-03-22T13:09:03.016Z,6.82
2019-03-22T13:10:03.762Z,6.15
2019-03-22T13:11:03.699Z,7.09
2019-03-22T13:12:03.613Z,7.09
2019-03-22T13:13:02.985Z,6.21
2019-03-22T13:14:03.644Z,6.27